Time;durP1;ratioP1;P1;durP2;ratioP2;P2;SDS_P1;SDS_P2;PMS_P1;PMS_P2;Temp;Humidity;BMP_temperature;BMP_pressure;BME280_temperature;BME280_humidity;BME280_pressure;Samples;Min_cycle;Max_cycle;Signal;HPM_P1;HPM_P2
2023/05/13 00:00:32;;;;;;;;;;;12.80;99.90;;;;;;5105712;28;20417;-38
2023/05/13 00:03:00;;;;;;;;;;;12.90;99.90;;;;;;5077844;28;20404;-38
2023/05/13 00:05:27;;;;;;;;;;;12.80;99.90;;;;;;5095875;28;19942;-38
2023/05/13 00:07:53;;;;;;;;;;;12.80;99.90;;;;;;5101128;28;19964;-38
2023/05/13 00:10:20;;;;;;;;;;;12.70;99.90;;;;;;5096388;28;19981;-38
2023/05/13 00:12:47;;;;;;;;;;;12.70;99.90;;;;;;5108678;28;19943;-38
2023/05/13 00:15:13;;;;;;;;;;;12.70;99.90;;;;;;5096348;28;20018;-38
2023/05/13 00:17:40;;;;;;;;;;;12.60;99.90;;;;;;5089059;28;19940;-38
2023/05/13 00:20:09;;;;;;;;;;;12.60;99.90;;;;;;5114058;28;19981;-38
2023/05/13 00:22:35;;;;;;;;;;;12.60;99.90;;;;;;5098495;28;20033;-38
2023/05/13 00:25:02;;;;;;;;;;;12.50;99.90;;;;;;5101267;28;19944;-38
2023/05/13 00:27:31;;;;;;;;;;;12.50;99.90;;;;;;5087103;28;19948;-37
2023/05/13 00:29:58;;;;;;;;;;;12.40;99.90;;;;;;5079352;28;20283;-38
2023/05/13 00:32:25;;;;;;;;;;;12.40;99.90;;;;;;5080426;28;19954;-38
2023/05/13 00:34:52;;;;;;;;;;;12.40;99.90;;;;;;5115388;28;20312;-38
2023/05/13 00:37:20;;;;;;;;;;;12.30;99.90;;;;;;5104995;28;19980;-38
2023/05/13 00:39:47;;;;;;;;;;;12.30;99.90;;;;;;5097500;28;19941;-38
2023/05/13 00:42:14;;;;;;;;;;;12.30;99.90;;;;;;5087711;28;19957;-37
2023/05/13 00:44:40;;;;;;;;;;;12.30;99.90;;;;;;5104326;28;19936;-38
2023/05/13 00:47:07;;;;;;;;;;;12.30;99.90;;;;;;5106866;27;19994;-38
2023/05/13 00:49:34;;;;;;;;;;;12.20;99.90;;;;;;5107829;27;19936;-38
2023/05/13 00:52:00;;;;;;;;;;;12.20;99.90;;;;;;5084823;28;19978;-38
2023/05/13 00:54:28;;;;;;;;;;;12.20;99.90;;;;;;5080676;28;19937;-39
2023/05/13 00:56:55;;;;;;;;;;;12.10;99.90;;;;;;5077212;28;19993;-38
2023/05/13 00:59:22;;;;;;;;;;;12.10;99.90;;;;;;5077734;28;19944;-38
2023/05/13 01:01:51;;;;;;;;;;;12.10;99.90;;;;;;5097260;28;19958;-39
2023/05/13 01:04:20;;;;;;;;;;;12.10;99.90;;;;;;5094621;28;19997;-38
2023/05/13 01:06:50;;;;;;;;;;;12.00;99.90;;;;;;5100059;28;20522;-38
2023/05/13 01:09:18;;;;;;;;;;;12.00;99.90;;;;;;5098074;28;19934;-37
2023/05/13 01:11:46;;;;;;;;;;;12.00;99.90;;;;;;5078270;28;19939;-37
2023/05/13 01:14:13;;;;;;;;;;;12.00;99.90;;;;;;5093849;28;19988;-38
2023/05/13 01:16:40;;;;;;;;;;;12.00;99.90;;;;;;5098572;28;19963;-38
2023/05/13 01:19:07;;;;;;;;;;;11.90;99.90;;;;;;5101532;28;19984;-38
2023/05/13 01:21:36;;;;;;;;;;;11.90;99.90;;;;;;5106596;28;19956;-38
2023/05/13 01:24:03;;;;;;;;;;;11.90;99.90;;;;;;5091294;28;19985;-38
2023/05/13 01:26:29;;;;;;;;;;;11.90;99.90;;;;;;5077190;28;19982;-38
2023/05/13 01:28:56;;;;;;;;;;;11.90;99.90;;;;;;5077144;28;19941;-38
2023/05/13 01:31:23;;;;;;;;;;;11.90;99.90;;;;;;5094224;28;19943;-38
2023/05/13 01:33:49;;;;;;;;;;;11.90;99.90;;;;;;5098645;28;20023;-38
2023/05/13 01:36:16;;;;;;;;;;;11.80;99.90;;;;;;5097381;28;19998;-38
2023/05/13 01:38:44;;;;;;;;;;;11.80;99.90;;;;;;5076668;28;19986;-38
2023/05/13 01:41:11;;;;;;;;;;;11.80;99.90;;;;;;5075802;28;20005;-38
2023/05/13 01:43:37;;;;;;;;;;;11.80;99.90;;;;;;5075825;28;19994;-38
2023/05/13 01:46:04;;;;;;;;;;;11.80;99.90;;;;;;5099191;28;19994;-37
2023/05/13 01:48:31;;;;;;;;;;;11.70;99.90;;;;;;5111044;28;19938;-38
2023/05/13 01:50:57;;;;;;;;;;;11.70;99.90;;;;;;5084198;28;20004;-38
2023/05/13 01:53:24;;;;;;;;;;;11.70;99.90;;;;;;5096507;28;20376;-38
2023/05/13 01:55:52;;;;;;;;;;;11.70;99.90;;;;;;5082647;28;20365;-37
2023/05/13 01:58:19;;;;;;;;;;;11.60;99.90;;;;;;5094030;28;19940;-38
2023/05/13 02:00:46;;;;;;;;;;;11.60;99.90;;;;;;5095440;28;19938;-38
2023/05/13 02:03:12;;;;;;;;;;;11.60;99.90;;;;;;5096329;28;19975;-38
2023/05/13 02:05:39;;;;;;;;;;;11.60;99.90;;;;;;5076859;28;20347;-38
2023/05/13 02:08:06;;;;;;;;;;;11.50;99.90;;;;;;5099214;28;19999;-38
2023/05/13 02:10:32;;;;;;;;;;;11.50;99.90;;;;;;5094256;28;19936;-38
2023/05/13 02:13:00;;;;;;;;;;;11.50;99.90;;;;;;5093624;28;19940;-38
2023/05/13 02:15:27;;;;;;;;;;;11.50;99.90;;;;;;5093240;28;19940;-37
2023/05/13 02:17:54;;;;;;;;;;;11.50;99.90;;;;;;5112052;28;20428;-38
2023/05/13 02:20:20;;;;;;;;;;;11.50;99.90;;;;;;5108587;28;19992;-38
2023/05/13 02:22:47;;;;;;;;;;;11.40;99.90;;;;;;5093279;28;20350;-38
2023/05/13 02:25:14;;;;;;;;;;;11.40;99.90;;;;;;5103643;28;19973;-38
2023/05/13 02:27:40;;;;;;;;;;;11.40;99.90;;;;;;5074975;28;20009;-37
2023/05/13 02:30:09;;;;;;;;;;;11.40;99.90;;;;;;5109252;28;20484;-38
2023/05/13 02:32:36;;;;;;;;;;;11.30;99.90;;;;;;5084969;28;19947;-37
2023/05/13 02:35:02;;;;;;;;;;;11.30;99.90;;;;;;5102646;28;19944;-38
2023/05/13 02:37:29;;;;;;;;;;;11.30;99.90;;;;;;5092781;28;19935;-37
2023/05/13 02:39:56;;;;;;;;;;;11.20;99.90;;;;;;5074465;28;19989;-37
2023/05/13 02:42:22;;;;;;;;;;;11.20;99.90;;;;;;5093203;28;20477;-38
2023/05/13 02:44:49;;;;;;;;;;;11.20;99.90;;;;;;5107501;28;19986;-39
2023/05/13 02:47:17;;;;;;;;;;;11.20;99.90;;;;;;5110814;28;20022;-38
2023/05/13 02:49:44;;;;;;;;;;;11.20;99.90;;;;;;5103059;28;19938;-39
2023/05/13 02:52:10;;;;;;;;;;;11.20;99.90;;;;;;5078083;28;19939;-38
2023/05/13 02:54:37;;;;;;;;;;;11.10;99.90;;;;;;5076062;28;20004;-38
2023/05/13 02:57:04;;;;;;;;;;;11.10;99.90;;;;;;5106881;28;20454;-38
2023/05/13 02:59:30;;;;;;;;;;;11.10;99.90;;;;;;5092525;28;20403;-39
2023/05/13 03:01:57;;;;;;;;;;;11.00;99.90;;;;;;5104442;28;20002;-38
2023/05/13 03:04:25;;;;;;;;;;;11.10;99.90;;;;;;5092627;28;19948;-38
2023/05/13 03:06:52;;;;;;;;;;;11.00;99.90;;;;;;5078316;28;20392;-38
2023/05/13 03:09:18;;;;;;;;;;;11.00;99.90;;;;;;5094032;28;20019;-39
2023/05/13 03:11:45;;;;;;;;;;;11.00;99.90;;;;;;5074658;28;19940;-38
2023/05/13 03:14:12;;;;;;;;;;;11.00;99.90;;;;;;5083008;28;19952;-38
2023/05/13 03:16:38;;;;;;;;;;;10.90;99.90;;;;;;5093459;28;19943;-38
2023/05/13 03:19:05;;;;;;;;;;;10.90;99.90;;;;;;5109152;28;19944;-39
2023/05/13 03:21:33;;;;;;;;;;;10.90;99.90;;;;;;5102753;28;20036;-39
2023/05/13 03:24:00;;;;;;;;;;;10.90;99.90;;;;;;5095681;28;19984;-39
2023/05/13 03:26:26;;;;;;;;;;;10.90;99.90;;;;;;5108067;28;19945;-39
2023/05/13 03:28:53;;;;;;;;;;;10.90;99.90;;;;;;5078765;28;19940;-38
2023/05/13 03:31:19;;;;;;;;;;;10.80;99.90;;;;;;5087423;28;19962;-38
2023/05/13 03:33:46;;;;;;;;;;;10.80;99.90;;;;;;5097766;28;20145;-38
2023/05/13 03:36:13;;;;;;;;;;;10.80;99.90;;;;;;5078187;28;19936;-39
2023/05/13 03:38:41;;;;;;;;;;;10.80;99.90;;;;;;5091768;28;19940;-38
2023/05/13 03:41:07;;;;;;;;;;;10.70;99.90;;;;;;5073813;28;19968;-38
2023/05/13 03:43:34;;;;;;;;;;;10.70;99.90;;;;;;5087433;28;20009;-38
2023/05/13 03:46:01;;;;;;;;;;;10.70;99.90;;;;;;5092841;28;19948;-38
2023/05/13 03:48:27;;;;;;;;;;;10.70;99.90;;;;;;5093428;28;20356;-38
2023/05/13 03:50:54;;;;;;;;;;;10.70;99.90;;;;;;5084626;28;19974;-38
2023/05/13 03:53:20;;;;;;;;;;;10.60;99.90;;;;;;5092790;28;19942;-38
2023/05/13 03:55:48;;;;;;;;;;;10.60;99.90;;;;;;5074203;28;19992;-39
2023/05/13 03:58:15;;;;;;;;;;;10.50;99.90;;;;;;5093255;28;19948;-39
2023/05/13 04:00:45;;;;;;;;;;;10.60;99.90;;;;;;5105201;28;19944;-38
2023/05/13 04:03:11;;;;;;;;;;;10.60;99.90;;;;;;5110021;28;20046;-39
2023/05/13 04:05:38;;;;;;;;;;;10.60;99.90;;;;;;5094532;28;19940;-38
2023/05/13 04:08:05;;;;;;;;;;;10.60;99.90;;;;;;5089848;28;19989;-38
2023/05/13 04:10:31;;;;;;;;;;;10.60;99.90;;;;;;5075965;28;19937;-38
2023/05/13 04:12:59;;;;;;;;;;;10.60;99.90;;;;;;5104730;28;19943;-38
2023/05/13 04:15:26;;;;;;;;;;;10.50;99.90;;;;;;5103977;27;20253;-38
2023/05/13 04:17:53;;;;;;;;;;;10.50;99.90;;;;;;5102057;28;20332;-38
2023/05/13 04:20:20;;;;;;;;;;;10.50;99.90;;;;;;5096849;27;19941;-39
2023/05/13 04:22:47;;;;;;;;;;;10.50;99.90;;;;;;5101100;28;19963;-38
2023/05/13 04:25:14;;;;;;;;;;;10.50;99.90;;;;;;5095427;28;20020;-39
2023/05/13 04:27:40;;;;;;;;;;;10.50;99.90;;;;;;5090249;28;19959;-37
2023/05/13 04:30:09;;;;;;;;;;;10.60;99.90;;;;;;5098203;28;19941;-38
2023/05/13 04:32:36;;;;;;;;;;;10.50;99.90;;;;;;5093036;28;19936;-39
2023/05/13 04:35:02;;;;;;;;;;;10.50;99.90;;;;;;5094848;27;19979;-38
2023/05/13 04:37:29;;;;;;;;;;;10.60;99.90;;;;;;5102603;27;19940;-38
2023/05/13 04:39:56;;;;;;;;;;;10.50;99.90;;;;;;5106059;27;19988;-39
2023/05/13 04:42:22;;;;;;;;;;;10.60;99.90;;;;;;5101352;28;19962;-39
2023/05/13 04:44:49;;;;;;;;;;;10.60;99.90;;;;;;5111366;28;20034;-39
2023/05/13 04:47:17;;;;;;;;;;;10.60;99.90;;;;;;5077684;28;20455;-39
2023/05/13 04:49:44;;;;;;;;;;;10.60;99.90;;;;;;5091636;28;19964;-39
2023/05/13 04:52:11;;;;;;;;;;;10.60;99.90;;;;;;5090015;28;19967;-39
2023/05/13 04:54:38;;;;;;;;;;;10.70;99.90;;;;;;5111752;28;20388;-39
2023/05/13 04:57:05;;;;;;;;;;;10.70;99.90;;;;;;5105325;27;20393;-38
2023/05/13 04:59:32;;;;;;;;;;;10.70;99.90;;;;;;5078469;28;20379;-39
2023/05/13 05:01:58;;;;;;;;;;;10.70;99.90;;;;;;5080049;28;19967;-40
2023/05/13 05:04:26;;;;;;;;;;;10.80;99.90;;;;;;5109798;27;19988;-39
2023/05/13 05:06:53;;;;;;;;;;;10.80;99.90;;;;;;5110857;27;19944;-38
2023/05/13 05:09:20;;;;;;;;;;;10.90;99.90;;;;;;5078529;28;19976;-39
2023/05/13 05:11:48;;;;;;;;;;;10.90;99.90;;;;;;5102948;28;19938;-37
2023/05/13 05:14:15;;;;;;;;;;;11.00;99.90;;;;;;5094513;28;20016;-39
2023/05/13 05:16:42;;;;;;;;;;;11.00;99.90;;;;;;5098065;28;19942;-38
2023/05/13 05:19:08;;;;;;;;;;;11.10;99.90;;;;;;5097931;28;20029;-38
2023/05/13 05:21:36;;;;;;;;;;;11.20;99.90;;;;;;5105547;28;20407;-38
2023/05/13 05:24:03;;;;;;;;;;;11.20;99.90;;;;;;5111022;28;20395;-39
2023/05/13 05:26:30;;;;;;;;;;;11.30;99.90;;;;;;5091059;28;19971;-39
2023/05/13 05:28:56;;;;;;;;;;;11.40;99.90;;;;;;5111169;28;20415;-38
2023/05/13 05:31:23;;;;;;;;;;;11.50;99.90;;;;;;5107915;27;19939;-40
2023/05/13 05:33:50;;;;;;;;;;;11.60;99.90;;;;;;5087689;28;20065;-39
2023/05/13 05:36:16;;;;;;;;;;;11.70;99.90;;;;;;5109826;28;19939;-38
2023/05/13 05:38:46;;;;;;;;;;;11.80;99.90;;;;;;5100345;28;19950;-39
2023/05/13 05:41:13;;;;;;;;;;;11.90;99.90;;;;;;5089108;28;20326;-39
2023/05/13 05:43:39;;;;;;;;;;;12.00;99.90;;;;;;5080799;28;19954;-39
2023/05/13 05:46:06;;;;;;;;;;;12.10;99.90;;;;;;5090335;28;19976;-39
2023/05/13 05:48:32;;;;;;;;;;;12.20;99.90;;;;;;5107970;28;19994;-39
2023/05/13 05:50:59;;;;;;;;;;;12.40;99.90;;;;;;5083897;27;20410;-39
2023/05/13 05:53:26;;;;;;;;;;;12.50;99.90;;;;;;5081535;28;19985;-39
2023/05/13 05:55:54;;;;;;;;;;;12.60;99.90;;;;;;5103030;28;19941;-38
2023/05/13 05:58:20;;;;;;;;;;;12.70;99.90;;;;;;5113047;28;20311;-38
2023/05/13 06:00:47;;;;;;;;;;;12.80;99.90;;;;;;5077926;28;19968;-39
2023/05/13 06:03:14;;;;;;;;;;;12.90;99.90;;;;;;5086055;28;20508;-39
2023/05/13 06:05:40;;;;;;;;;;;13.00;99.90;;;;;;5102348;27;19988;-39
2023/05/13 06:08:07;;;;;;;;;;;13.10;99.90;;;;;;5085286;28;19981;-38
2023/05/13 06:10:34;;;;;;;;;;;13.30;99.90;;;;;;5109250;28;19944;-39
2023/05/13 06:13:02;;;;;;;;;;;13.40;99.90;;;;;;5111116;28;19947;-38
2023/05/13 06:15:28;;;;;;;;;;;13.50;99.90;;;;;;5085102;27;20030;-39
2023/05/13 06:17:55;;;;;;;;;;;13.40;99.90;;;;;;5100531;27;19994;-36
2023/05/13 06:20:22;;;;;;;;;;;13.40;99.90;;;;;;5109012;28;19935;-38
2023/05/13 06:22:49;;;;;;;;;;;13.40;99.90;;;;;;5102137;28;20479;-39
2023/05/13 06:25:15;;;;;;;;;;;13.50;99.90;;;;;;5104849;27;19942;-38
2023/05/13 06:27:42;;;;;;;;;;;13.60;99.90;;;;;;5107176;27;19936;-38
2023/05/13 06:30:10;;;;;;;;;;;13.80;99.90;;;;;;5107004;27;20024;-39
2023/05/13 06:32:37;;;;;;;;;;;13.90;99.90;;;;;;5092853;28;19934;-39
2023/05/13 06:35:04;;;;;;;;;;;14.10;99.90;;;;;;5099694;28;19984;-42
2023/05/13 06:37:30;;;;;;;;;;;14.30;99.90;;;;;;5105238;28;19943;-38
2023/05/13 06:39:58;;;;;;;;;;;14.50;99.90;;;;;;5107624;27;20691;-38
2023/05/13 06:42:24;;;;;;;;;;;14.70;99.90;;;;;;5100814;27;19961;-38
2023/05/13 06:44:51;;;;;;;;;;;14.80;99.90;;;;;;5082666;28;19943;-39
2023/05/13 06:47:19;;;;;;;;;;;14.90;99.90;;;;;;5099451;27;19985;-38
2023/05/13 06:49:46;;;;;;;;;;;15.00;99.90;;;;;;5087843;28;19987;-37
2023/05/13 06:52:12;;;;;;;;;;;15.20;99.90;;;;;;5089823;28;20185;-38
2023/05/13 06:54:39;;;;;;;;;;;15.40;99.90;;;;;;5103707;28;20065;-38
2023/05/13 06:57:06;;;;;;;;;;;15.50;99.90;;;;;;5099462;28;19951;-38
2023/05/13 06:59:32;;;;;;;;;;;15.60;99.90;;;;;;5083469;28;19963;-39
2023/05/13 07:01:59;;;;;;;;;;;15.80;99.90;;;;;;5106964;28;19938;-39
2023/05/13 07:04:29;;;;;;;;;;;15.90;99.90;;;;;;5107167;28;20014;-39
2023/05/13 07:06:56;;;;;;;;;;;16.00;99.90;;;;;;5102887;28;19944;-39
2023/05/13 07:09:22;;;;;;;;;;;16.10;99.90;;;;;;5090561;28;19995;-38
2023/05/13 07:11:49;;;;;;;;;;;16.30;99.90;;;;;;5084102;28;19941;-39
2023/05/13 07:14:15;;;;;;;;;;;16.40;99.90;;;;;;5091008;28;19944;-39
2023/05/13 07:16:42;;;;;;;;;;;16.60;99.90;;;;;;5111408;28;19937;-38
2023/05/13 07:19:09;;;;;;;;;;;16.70;99.90;;;;;;5100784;28;20299;-39
2023/05/13 07:21:37;;;;;;;;;;;16.80;99.90;;;;;;5108215;28;19942;-39
2023/05/13 07:24:04;;;;;;;;;;;17.00;99.90;;;;;;5097790;28;19962;-38
2023/05/13 07:26:31;;;;;;;;;;;17.10;99.90;;;;;;5080232;28;20432;-39
2023/05/13 07:28:58;;;;;;;;;;;17.20;99.90;;;;;;5098343;28;20363;-38
2023/05/13 07:31:25;;;;;;;;;;;17.20;99.90;;;;;;5111079;28;20038;-37
2023/05/13 07:33:51;;;;;;;;;;;17.30;99.90;;;;;;5089653;28;19980;-38
2023/05/13 07:36:18;;;;;;;;;;;17.40;99.90;;;;;;5106602;28;20364;-38
2023/05/13 07:38:46;;;;;;;;;;;17.40;99.90;;;;;;5093439;28;20026;-38
2023/05/13 07:41:13;;;;;;;;;;;17.50;99.90;;;;;;5084550;28;19960;-38
2023/05/13 07:43:39;;;;;;;;;;;17.50;99.90;;;;;;5082017;28;19982;-37
2023/05/13 07:46:06;;;;;;;;;;;17.60;99.90;;;;;;5106907;28;19941;-38
2023/05/13 07:48:33;;;;;;;;;;;17.70;99.90;;;;;;5110184;28;19993;-38
2023/05/13 07:50:59;;;;;;;;;;;17.90;99.90;;;;;;5084064;28;19945;-38
2023/05/13 07:53:26;;;;;;;;;;;18.20;99.90;;;;;;5096529;28;19996;-36
2023/05/13 07:55:54;;;;;;;;;;;18.30;99.90;;;;;;5093872;28;20373;-37
2023/05/13 07:58:21;;;;;;;;;;;18.50;99.90;;;;;;5096073;28;20015;-38
2023/05/13 08:00:48;;;;;;;;;;;18.60;99.90;;;;;;5097237;27;20386;-39
2023/05/13 08:03:15;;;;;;;;;;;18.60;99.90;;;;;;5098311;28;19967;-39
2023/05/13 08:05:42;;;;;;;;;;;18.70;99.90;;;;;;5100195;28;19939;-37
2023/05/13 08:08:08;;;;;;;;;;;18.80;99.90;;;;;;5109063;28;19943;-39
2023/05/13 08:10:35;;;;;;;;;;;18.80;99.90;;;;;;5107681;28;19941;-38
2023/05/13 08:13:03;;;;;;;;;;;18.90;99.90;;;;;;5104691;28;19970;-38
2023/05/13 08:15:30;;;;;;;;;;;19.00;99.90;;;;;;5082140;28;20381;-39
2023/05/13 08:17:56;;;;;;;;;;;19.20;99.90;;;;;;5084861;28;19989;-38
2023/05/13 08:20:28;;;;;;;;;;;19.30;99.90;;;;;;5082516;28;19979;-38
2023/05/13 08:22:55;;;;;;;;;;;19.50;99.90;;;;;;5097699;27;20014;-38
2023/05/13 08:25:22;;;;;;;;;;;19.70;99.90;;;;;;5080986;28;19938;-38
2023/05/13 08:27:48;;;;;;;;;;;19.80;99.90;;;;;;5102471;28;19944;-38
2023/05/13 08:30:16;;;;;;;;;;;19.90;99.90;;;;;;5098269;28;19939;-38
2023/05/13 08:32:43;;;;;;;;;;;20.00;99.90;;;;;;5108670;28;19984;-38
2023/05/13 08:35:10;;;;;;;;;;;20.10;99.90;;;;;;5087599;28;19940;-38
2023/05/13 08:37:36;;;;;;;;;;;20.30;99.90;;;;;;5101593;27;19944;-37
2023/05/13 08:40:04;;;;;;;;;;;20.50;99.90;;;;;;5095854;28;19983;-38
2023/05/13 08:42:31;;;;;;;;;;;20.50;99.30;;;;;;5076850;28;19967;-38
2023/05/13 08:44:57;;;;;;;;;;;20.60;99.90;;;;;;5103249;28;20371;-38
2023/05/13 08:47:26;;;;;;;;;;;20.60;99.90;;;;;;5094782;28;19993;-38
2023/05/13 08:49:53;;;;;;;;;;;20.70;99.80;;;;;;5101859;28;19941;-37
2023/05/13 08:52:21;;;;;;;;;;;20.80;99.90;;;;;;5111298;28;19939;-38
2023/05/13 08:54:47;;;;;;;;;;;21.00;99.60;;;;;;5077215;28;19950;-37
2023/05/13 08:57:14;;;;;;;;;;;21.20;97.40;;;;;;5095125;28;19980;-39
2023/05/13 08:59:41;;;;;;;;;;;21.20;94.20;;;;;;5076657;28;19993;-38
2023/05/13 09:02:07;;;;;;;;;;;21.30;97.60;;;;;;5110145;28;19982;-38
2023/05/13 09:04:37;;;;;;;;;;;21.40;97.70;;;;;;5076843;28;19959;-39
2023/05/13 09:07:04;;;;;;;;;;;21.60;95.10;;;;;;5107974;28;19947;-38
2023/05/13 09:09:31;;;;;;;;;;;21.70;96.10;;;;;;5088921;28;20301;-38
2023/05/13 09:11:57;;;;;;;;;;;21.70;94.60;;;;;;5094901;28;20448;-39
2023/05/13 09:14:27;;;;;;;;;;;21.90;95.80;;;;;;5122168;27;19943;-38
2023/05/13 09:16:55;;;;;;;;;;;21.90;95.50;;;;;;5081615;28;19947;-38
2023/05/13 09:19:23;;;;;;;;;;;22.00;96.10;;;;;;5104298;28;19951;-39
2023/05/13 09:21:51;;;;;;;;;;;22.10;92.10;;;;;;5092294;28;20035;-38
2023/05/13 09:24:20;;;;;;;;;;;22.20;95.80;;;;;;5111984;28;19949;-38
2023/05/13 09:26:46;;;;;;;;;;;22.30;92.70;;;;;;5082279;28;19937;-38
2023/05/13 09:29:17;;;;;;;;;;;22.50;91.00;;;;;;5111434;28;19979;-38
2023/05/13 09:31:43;;;;;;;;;;;22.60;92.50;;;;;;5107331;28;19938;-38
2023/05/13 09:34:10;;;;;;;;;;;22.80;90.50;;;;;;5103850;28;19938;-38
2023/05/13 09:36:37;;;;;;;;;;;22.90;87.80;;;;;;5111137;28;19946;-38
2023/05/13 09:39:05;;;;;;;;;;;23.00;84.60;;;;;;5108503;28;19945;-39
2023/05/13 09:41:31;;;;;;;;;;;23.10;90.10;;;;;;5085856;28;19960;-39
2023/05/13 09:43:58;;;;;;;;;;;23.20;93.10;;;;;;5102541;28;19995;-40
2023/05/13 09:46:25;;;;;;;;;;;23.40;89.70;;;;;;5086491;28;19936;-40
2023/05/13 09:48:55;;;;;;;;;;;23.50;87.00;;;;;;5091362;28;19992;-39
2023/05/13 09:51:25;;;;;;;;;;;23.60;88.70;;;;;;5112703;28;19959;-39
2023/05/13 09:53:51;;;;;;;;;;;23.70;88.20;;;;;;5076112;28;20370;-39
2023/05/13 09:56:21;;;;;;;;;;;23.80;80.50;;;;;;5109561;27;19984;-39
2023/05/13 09:58:50;;;;;;;;;;;23.80;83.30;;;;;;5096951;28;20412;-39
2023/05/13 10:01:17;;;;;;;;;;;23.90;89.10;;;;;;5085739;28;20023;-39
2023/05/13 10:03:44;;;;;;;;;;;23.90;82.70;;;;;;5084899;28;19954;-39
2023/05/13 10:06:10;;;;;;;;;;;24.10;83.40;;;;;;5081467;28;19935;-39
2023/05/13 10:08:37;;;;;;;;;;;24.30;82.60;;;;;;5108617;28;20398;-39
2023/05/13 10:11:04;;;;;;;;;;;24.40;78.40;;;;;;5106986;28;19990;-38
2023/05/13 10:13:32;;;;;;;;;;;24.40;76.50;;;;;;5088393;28;19938;-38
2023/05/13 10:15:58;;;;;;;;;;;24.50;83.80;;;;;;5084997;28;19985;-38
2023/05/13 10:18:27;;;;;;;;;;;24.60;74.40;;;;;;5085573;28;19958;-39
